sensor_id;sensor_type;location;lat;lon;timestamp;pressure;altitude;pressure_sealevel;temperature;humidity
8717;BME280;4395;48.554;8.820;2023-02-13T00:01:55;97653.28;;;1.40;100.00
8717;BME280;4395;48.554;8.820;2023-02-13T00:03:58;97693.72;;;1.59;100.00
8717;BME280;4395;48.554;8.820;2023-02-13T00:06:01;97704.16;;;1.61;100.00
8717;BME280;4395;48.554;8.820;2023-02-13T00:08:04;97697.72;;;1.64;100.00
8717;BME280;4395;48.554;8.820;2023-02-13T00:10:07;97700.44;;;1.72;100.00
8717;BME280;4395;48.554;8.820;2023-02-13T00:12:10;97700.66;;;1.78;100.00
8717;BME280;4395;48.554;8.820;2023-02-13T00:14:13;97690.59;;;1.82;100.00
8717;BME280;4395;48.554;8.820;2023-02-13T00:16:17;97702.19;;;1.81;100.00
8717;BME280;4395;48.554;8.820;2023-02-13T00:18:20;97696.81;;;1.73;100.00
8717;BME280;4395;48.554;8.820;2023-02-13T00:20:23;97694.69;;;1.76;100.00
8717;BME280;4395;48.554;8.820;2023-02-13T00:22:25;97697.78;;;1.72;100.00
8717;BME280;4395;48.554;8.820;2023-02-13T00:24:28;97696.72;;;1.82;100.00
8717;BME280;4395;48.554;8.820;2023-02-13T00:26:31;97695.22;;;1.80;100.00
8717;BME280;4395;48.554;8.820;2023-02-13T00:28:34;97558.13;;;1.03;100.00
8717;BME280;4395;48.554;8.820;2023-02-13T00:30:37;97682.69;;;1.90;100.00
8717;BME280;4395;48.554;8.820;2023-02-13T00:32:41;97684.03;;;1.94;100.00
8717;BME280;4395;48.554;8.820;2023-02-13T00:34:44;97693.66;;;1.95;100.00
8717;BME280;4395;48.554;8.820;2023-02-13T00:36:47;97698.28;;;1.93;100.00
8717;BME280;4395;48.554;8.820;2023-02-13T00:38:50;97656.56;;;1.77;100.00
8717;BME280;4395;48.554;8.820;2023-02-13T00:40:54;97697.94;;;1.70;100.00
8717;BME280;4395;48.554;8.820;2023-02-13T00:42:57;97689.09;;;1.61;100.00
8717;BME280;4395;48.554;8.820;2023-02-13T00:45:00;97697.06;;;1.44;100.00
8717;BME280;4395;48.554;8.820;2023-02-13T00:47:03;97690.63;;;1.46;100.00
8717;BME280;4395;48.554;8.820;2023-02-13T00:49:07;97659.72;;;1.02;100.00
8717;BME280;4395;48.554;8.820;2023-02-13T00:51:11;97681.47;;;1.23;100.00
8717;BME280;4395;48.554;8.820;2023-02-13T00:53:14;97702.28;;;1.36;100.00
8717;BME280;4395;48.554;8.820;2023-02-13T00:55:19;97686.59;;;1.42;100.00
8717;BME280;4395;48.554;8.820;2023-02-13T00:57:23;97672.91;;;1.29;100.00
8717;BME280;4395;48.554;8.820;2023-02-13T00:59:25;97692.59;;;1.44;100.00
8717;BME280;4395;48.554;8.820;2023-02-13T01:01:28;97642.47;;;0.98;100.00
8717;BME280;4395;48.554;8.820;2023-02-13T01:03:33;97693.66;;;1.34;100.00
8717;BME280;4395;48.554;8.820;2023-02-13T01:05:37;97694.56;;;1.42;100.00
8717;BME280;4395;48.554;8.820;2023-02-13T01:07:40;97682.59;;;1.38;100.00
8717;BME280;4395;48.554;8.820;2023-02-13T01:09:43;97683.66;;;1.45;100.00
8717;BME280;4395;48.554;8.820;2023-02-13T01:11:46;97631.72;;;1.17;100.00
8717;BME280;4395;48.554;8.820;2023-02-13T01:13:48;97684.56;;;1.36;100.00
8717;BME280;4395;48.554;8.820;2023-02-13T01:15:54;97675.41;;;1.31;100.00
8717;BME280;4395;48.554;8.820;2023-02-13T01:17:57;97675.09;;;1.34;100.00
8717;BME280;4395;48.554;8.820;2023-02-13T01:20:01;97678.72;;;1.33;100.00
8717;BME280;4395;48.554;8.820;2023-02-13T01:22:06;97677.97;;;1.40;100.00
8717;BME280;4395;48.554;8.820;2023-02-13T01:24:10;97685.78;;;1.42;100.00
8717;BME280;4395;48.554;8.820;2023-02-13T01:26:16;97584.66;;;0.75;100.00
8717;BME280;4395;48.554;8.820;2023-02-13T01:28:19;97682.06;;;1.35;100.00
8717;BME280;4395;48.554;8.820;2023-02-13T01:30:22;97684.41;;;1.20;100.00
8717;BME280;4395;48.554;8.820;2023-02-13T01:32:25;97684.03;;;1.15;100.00
8717;BME280;4395;48.554;8.820;2023-02-13T01:34:28;97689.47;;;1.13;100.00
8717;BME280;4395;48.554;8.820;2023-02-13T01:36:31;97680.69;;;1.13;100.00
8717;BME280;4395;48.554;8.820;2023-02-13T01:38:35;97631.94;;;0.88;100.00
8717;BME280;4395;48.554;8.820;2023-02-13T01:40:44;97689.16;;;1.16;100.00
8717;BME280;4395;48.554;8.820;2023-02-13T01:42:46;97685.69;;;1.16;100.00
8717;BME280;4395;48.554;8.820;2023-02-13T01:44:51;97663.06;;;1.04;100.00
8717;BME280;4395;48.554;8.820;2023-02-13T01:46:54;97675.41;;;1.13;100.00
8717;BME280;4395;48.554;8.820;2023-02-13T01:49:00;97670.78;;;1.15;100.00
8717;BME280;4395;48.554;8.820;2023-02-13T01:51:07;97681.81;;;1.10;100.00
8717;BME280;4395;48.554;8.820;2023-02-13T01:53:13;97617.16;;;0.68;100.00
8717;BME280;4395;48.554;8.820;2023-02-13T01:55:20;97669.72;;;1.08;100.00
8717;BME280;4395;48.554;8.820;2023-02-13T01:57:25;97675.69;;;1.10;100.00
8717;BME280;4395;48.554;8.820;2023-02-13T01:59:33;97659.66;;;1.11;100.00
8717;BME280;4395;48.554;8.820;2023-02-13T02:01:39;97654.13;;;1.05;100.00
8717;BME280;4395;48.554;8.820;2023-02-13T02:03:47;97671.09;;;1.12;100.00
8717;BME280;4395;48.554;8.820;2023-02-13T02:05:54;97666.63;;;1.12;100.00
8717;BME280;4395;48.554;8.820;2023-02-13T02:07:59;97668.34;;;1.04;100.00
8717;BME280;4395;48.554;8.820;2023-02-13T02:10:07;97673.25;;;0.99;100.00
8717;BME280;4395;48.554;8.820;2023-02-13T02:12:22;97669.00;;;0.88;100.00
8717;BME280;4395;48.554;8.820;2023-02-13T02:14:27;97706.91;;;0.88;100.00
8717;BME280;4395;48.554;8.820;2023-02-13T02:16:31;97604.31;;;0.55;100.00
8717;BME280;4395;48.554;8.820;2023-02-13T02:18:38;97672.38;;;1.08;100.00
8717;BME280;4395;48.554;8.820;2023-02-13T02:25:57;97656.75;;;0.87;100.00
8717;BME280;4395;48.554;8.820;2023-02-13T02:28:28;97671.31;;;1.01;100.00
8717;BME280;4395;48.554;8.820;2023-02-13T02:30:51;97661.06;;;0.88;100.00
8717;BME280;4395;48.554;8.820;2023-02-13T02:33:07;97670.81;;;0.87;100.00
8717;BME280;4395;48.554;8.820;2023-02-13T02:35:19;97662.59;;;0.90;100.00
8717;BME280;4395;48.554;8.820;2023-02-13T02:37:36;97653.13;;;0.88;100.00
8717;BME280;4395;48.554;8.820;2023-02-13T02:39:53;97671.72;;;0.78;100.00
8717;BME280;4395;48.554;8.820;2023-02-13T02:42:10;97529.41;;;-0.01;100.00
8717;BME280;4395;48.554;8.820;2023-02-13T02:44:31;97668.97;;;0.70;100.00
8717;BME280;4395;48.554;8.820;2023-02-13T02:46:39;97649.09;;;0.66;100.00
8717;BME280;4395;48.554;8.820;2023-02-13T02:49:10;97584.03;;;0.18;100.00
8717;BME280;4395;48.554;8.820;2023-02-13T02:51:38;97479.38;;;-0.39;100.00
8717;BME280;4395;48.554;8.820;2023-02-13T02:53:49;97611.66;;;0.34;100.00
8717;BME280;4395;48.554;8.820;2023-02-13T02:55:55;97648.69;;;0.61;100.00
8717;BME280;4395;48.554;8.820;2023-02-13T02:58:07;97678.72;;;0.70;100.00
8717;BME280;4395;48.554;8.820;2023-02-13T03:00:32;97643.31;;;0.53;100.00
8717;BME280;4395;48.554;8.820;2023-02-13T03:02:53;97635.81;;;0.48;100.00
8717;BME280;4395;48.554;8.820;2023-02-13T03:05:18;97676.13;;;0.60;100.00
8717;BME280;4395;48.554;8.820;2023-02-13T03:07:40;97668.09;;;0.79;100.00
8717;BME280;4395;48.554;8.820;2023-02-13T03:09:46;97671.81;;;0.86;100.00
8717;BME280;4395;48.554;8.820;2023-02-13T03:12:08;97646.22;;;0.77;100.00
8717;BME280;4395;48.554;8.820;2023-02-13T03:14:29;97666.38;;;0.88;100.00
8717;BME280;4395;48.554;8.820;2023-02-13T03:16:32;97666.22;;;0.89;100.00
8717;BME280;4395;48.554;8.820;2023-02-13T03:18:55;97677.50;;;0.91;100.00
8717;BME280;4395;48.554;8.820;2023-02-13T03:21:22;97647.91;;;0.78;100.00
8717;BME280;4395;48.554;8.820;2023-02-13T03:23:53;97681.22;;;0.99;100.00
8717;BME280;4395;48.554;8.820;2023-02-13T03:26:13;97659.50;;;0.95;100.00
8717;BME280;4395;48.554;8.820;2023-02-13T03:28:22;97667.59;;;0.93;100.00
8717;BME280;4395;48.554;8.820;2023-02-13T03:30:55;97673.94;;;1.01;100.00
8717;BME280;4395;48.554;8.820;2023-02-13T03:33:14;97671.69;;;1.06;100.00
8717;BME280;4395;48.554;8.820;2023-02-13T03:35:26;97666.25;;;1.07;100.00
8717;BME280;4395;48.554;8.820;2023-02-13T03:37:58;97666.81;;;0.83;100.00
8717;BME280;4395;48.554;8.820;2023-02-13T03:40:06;97666.22;;;0.89;100.00
8717;BME280;4395;48.554;8.820;2023-02-13T03:42:17;97592.84;;;0.37;100.00
8717;BME280;4395;48.554;8.820;2023-02-13T03:44:27;97674.84;;;0.91;100.00
8717;BME280;4395;48.554;8.820;2023-02-13T03:46:34;97681.41;;;0.87;100.00
8717;BME280;4395;48.554;8.820;2023-02-13T03:48:39;97585.78;;;0.27;100.00
8717;BME280;4395;48.554;8.820;2023-02-13T03:51:01;97676.28;;;0.86;100.00
8717;BME280;4395;48.554;8.820;2023-02-13T03:53:09;97632.66;;;0.35;100.00
8717;BME280;4395;48.554;8.820;2023-02-13T03:55:14;97534.81;;;-0.29;100.00
8717;BME280;4395;48.554;8.820;2023-02-13T03:57:39;97689.47;;;0.68;100.00
8717;BME280;4395;48.554;8.820;2023-02-13T04:00:05;97684.16;;;0.68;100.00
8717;BME280;4395;48.554;8.820;2023-02-13T04:02:17;97691.88;;;0.61;100.00
8717;BME280;4395;48.554;8.820;2023-02-13T04:04:28;97696.19;;;0.62;100.00
8717;BME280;4395;48.554;8.820;2023-02-13T04:06:36;97689.47;;;0.68;100.00
8717;BME280;4395;48.554;8.820;2023-02-13T04:08:41;97701.97;;;0.76;100.00
8717;BME280;4395;48.554;8.820;2023-02-13T04:10:49;97693.88;;;0.77;100.00
8717;BME280;4395;48.554;8.820;2023-02-13T04:12:59;97705.06;;;0.71;100.00
8717;BME280;4395;48.554;8.820;2023-02-13T04:15:07;97702.06;;;0.56;100.00
8717;BME280;4395;48.554;8.820;2023-02-13T04:17:16;97680.81;;;0.39;100.00
8717;BME280;4395;48.554;8.820;2023-02-13T04:19:21;97629.28;;;0.15;100.00
8717;BME280;4395;48.554;8.820;2023-02-13T04:21:25;97707.19;;;0.58;100.00
8717;BME280;4395;48.554;8.820;2023-02-13T04:23:28;97713.19;;;0.60;100.00
8717;BME280;4395;48.554;8.820;2023-02-13T04:25:33;97716.66;;;0.60;100.00
8717;BME280;4395;48.554;8.820;2023-02-13T04:27:37;97689.06;;;0.36;100.00
8717;BME280;4395;48.554;8.820;2023-02-13T04:29:39;97721.00;;;0.52;100.00
8717;BME280;4395;48.554;8.820;2023-02-13T04:31:42;97713.63;;;0.55;100.00
8717;BME280;4395;48.554;8.820;2023-02-13T04:33:45;97720.31;;;0.50;100.00
8717;BME280;4395;48.554;8.820;2023-02-13T04:35:48;97719.94;;;0.45;100.00
8717;BME280;4395;48.554;8.820;2023-02-13T04:37:51;97711.00;;;0.46;100.00
8717;BME280;4395;48.554;8.820;2023-02-13T04:39:54;97710.75;;;0.39;100.00
8717;BME280;4395;48.554;8.820;2023-02-13T04:41:58;97714.38;;;0.38;100.00
8717;BME280;4395;48.554;8.820;2023-02-13T04:44:01;97715.50;;;0.36;100.00
8717;BME280;4395;48.554;8.820;2023-02-13T04:46:04;97716.88;;;0.40;100.00
8717;BME280;4395;48.554;8.820;2023-02-13T04:48:07;97704.19;;;0.43;100.00
8717;BME280;4395;48.554;8.820;2023-02-13T04:50:10;97657.94;;;0.20;100.00
8717;BME280;4395;48.554;8.820;2023-02-13T04:52:13;97707.38;;;0.47;100.00
8717;BME280;4395;48.554;8.820;2023-02-13T04:54:16;97704.44;;;0.50;100.00
8717;BME280;4395;48.554;8.820;2023-02-13T04:56:19;97700.81;;;0.51;100.00
8717;BME280;4395;48.554;8.820;2023-02-13T04:58:23;97697.19;;;0.52;100.00
8717;BME280;4395;48.554;8.820;2023-02-13T05:00:27;97669.56;;;0.37;100.00
8717;BME280;4395;48.554;8.820;2023-02-13T05:02:30;97703.72;;;0.57;100.00
8717;BME280;4395;48.554;8.820;2023-02-13T05:04:33;97705.09;;;0.61;100.00
8717;BME280;4395;48.554;8.820;2023-02-13T05:06:36;97702.59;;;0.60;100.00
8717;BME280;4395;48.554;8.820;2023-02-13T05:08:39;97702.19;;;0.55;100.00
8717;BME280;4395;48.554;8.820;2023-02-13T05:10:42;97590.72;;;-0.24;100.00
8717;BME280;4395;48.554;8.820;2023-02-13T05:12:46;97717.53;;;0.51;100.00
8717;BME280;4395;48.554;8.820;2023-02-13T05:14:50;97712.38;;;0.50;100.00
8717;BME280;4395;48.554;8.820;2023-02-13T05:16:53;97714.06;;;0.51;100.00
8717;BME280;4395;48.554;8.820;2023-02-13T05:18:56;97712.94;;;0.53;100.00
8717;BME280;4395;48.554;8.820;2023-02-13T05:20:59;97713.75;;;0.54;100.00
8717;BME280;4395;48.554;8.820;2023-02-13T05:23:19;97706.81;;;0.53;100.00
8717;BME280;4395;48.554;8.820;2023-02-13T05:25:25;97722.41;;;0.56;100.00
8717;BME280;4395;48.554;8.820;2023-02-13T05:27:27;97683.75;;;0.36;100.00
8717;BME280;4395;48.554;8.820;2023-02-13T05:29:30;97691.69;;;0.36;100.00
8717;BME280;4395;48.554;8.820;2023-02-13T05:31:33;97707.97;;;0.41;100.00
8717;BME280;4395;48.554;8.820;2023-02-13T05:33:36;97715.78;;;0.32;100.00
8717;BME280;4395;48.554;8.820;2023-02-13T05:35:39;97704.81;;;0.27;100.00
8717;BME280;4395;48.554;8.820;2023-02-13T05:37:42;97708.03;;;0.21;100.00
8717;BME280;4395;48.554;8.820;2023-02-13T05:39:45;97708.91;;;0.12;100.00
8717;BME280;4395;48.554;8.820;2023-02-13T05:41:48;97696.94;;;0.08;100.00
8717;BME280;4395;48.554;8.820;2023-02-13T05:43:51;97704.47;;;0.03;100.00
8717;BME280;4395;48.554;8.820;2023-02-13T05:46:01;97672.06;;;-0.18;100.00
8717;BME280;4395;48.554;8.820;2023-02-13T05:48:05;97700.69;;;-0.04;100.00
8717;BME280;4395;48.554;8.820;2023-02-13T05:50:09;97685.72;;;-0.23;100.00
8717;BME280;4395;48.554;8.820;2023-02-13T05:52:11;97708.34;;;-0.11;100.00
8717;BME280;4395;48.554;8.820;2023-02-13T05:54:14;97708.91;;;-0.17;100.00
8717;BME280;4395;48.554;8.820;2023-02-13T05:56:17;97701.69;;;-0.24;100.00
8717;BME280;4395;48.554;8.820;2023-02-13T05:58:20;97693.09;;;-0.26;100.00
8717;BME280;4395;48.554;8.820;2023-02-13T06:00:23;97692.25;;;-0.27;100.00
8717;BME280;4395;48.554;8.820;2023-02-13T06:02:26;97705.88;;;-0.32;100.00
8717;BME280;4395;48.554;8.820;2023-02-13T06:04:30;97699.75;;;-0.32;100.00
8717;BME280;4395;48.554;8.820;2023-02-13T06:06:33;97710.88;;;-0.28;100.00
8717;BME280;4395;48.554;8.820;2023-02-13T06:08:36;97700.59;;;-0.32;100.00
8717;BME280;4395;48.554;8.820;2023-02-13T06:10:39;97693.94;;;-0.36;100.00
8717;BME280;4395;48.554;8.820;2023-02-13T06:12:43;97697.97;;;-0.32;100.00
8717;BME280;4395;48.554;8.820;2023-02-13T06:14:45;97710.75;;;-0.27;100.00
8717;BME280;4395;48.554;8.820;2023-02-13T06:16:48;97717.72;;;-0.36;100.00
8717;BME280;4395;48.554;8.820;2023-02-13T06:18:51;97707.41;;;-0.29;100.00
8717;BME280;4395;48.554;8.820;2023-02-13T06:20:55;97716.19;;;-0.38;100.00
8717;BME280;4395;48.554;8.820;2023-02-13T06:23:00;97653.22;;;-0.81;100.00
8717;BME280;4395;48.554;8.820;2023-02-13T06:25:04;97725.91;;;-0.39;100.00
8717;BME280;4395;48.554;8.820;2023-02-13T06:27:07;97714.38;;;-0.38;100.00
8717;BME280;4395;48.554;8.820;2023-02-13T06:29:09;97714.38;;;-0.38;100.00
8717;BME280;4395;48.554;8.820;2023-02-13T06:31:13;97725.34;;;-0.33;100.00
8717;BME280;4395;48.554;8.820;2023-02-13T06:33:16;97725.06;;;-0.29;100.00
8717;BME280;4395;48.554;8.820;2023-02-13T06:35:18;97717.28;;;-0.31;100.00
8717;BME280;4395;48.554;8.820;2023-02-13T06:37:23;97643.91;;;-0.76;100.00
8717;BME280;4395;48.554;8.820;2023-02-13T06:39:25;97719.22;;;-0.23;100.00
8717;BME280;4395;48.554;8.820;2023-02-13T06:41:28;97723.94;;;-0.17;100.00
8717;BME280;4395;48.554;8.820;2023-02-13T06:43:31;97724.78;;;-0.17;100.00
8717;BME280;4395;48.554;8.820;2023-02-13T06:45:34;97716.16;;;-0.19;100.00
8717;BME280;4395;48.554;8.820;2023-02-13T06:47:40;97718.25;;;-0.22;100.00
8717;BME280;4395;48.554;8.820;2023-02-13T06:49:42;97719.91;;;-0.21;100.00
8717;BME280;4395;48.554;8.820;2023-02-13T06:51:45;97720.31;;;-0.16;100.00
8717;BME280;4395;48.554;8.820;2023-02-13T06:53:49;97725.91;;;-0.19;100.00
8717;BME280;4395;48.554;8.820;2023-02-13T06:55:53;97727.84;;;-0.21;100.00
8717;BME280;4395;48.554;8.820;2023-02-13T06:57:56;97732.84;;;-0.18;100.00
8717;BME280;4395;48.554;8.820;2023-02-13T06:59:59;97735.50;;;-0.18;100.00
8717;BME280;4395;48.554;8.820;2023-02-13T07:02:08;97718.81;;;-0.28;100.00
8717;BME280;4395;48.554;8.820;2023-02-13T07:04:11;97729.53;;;-0.30;100.00
8717;BME280;4395;48.554;8.820;2023-02-13T07:06:16;97729.78;;;-0.23;100.00
8717;BME280;4395;48.554;8.820;2023-02-13T07:08:19;97730.91;;;-0.26;100.00
8717;BME280;4395;48.554;8.820;2023-02-13T07:10:23;97738.44;;;-0.31;100.00
8717;BME280;4395;48.554;8.820;2023-02-13T07:12:26;97746.22;;;-0.29;100.00
8717;BME280;4395;48.554;8.820;2023-02-13T07:14:28;97743.84;;;-0.52;100.00
8717;BME280;4395;48.554;8.820;2023-02-13T07:16:31;97710.34;;;-0.71;100.00
8717;BME280;4395;48.554;8.820;2023-02-13T07:18:34;97733.13;;;-0.60;100.00
8717;BME280;4395;48.554;8.820;2023-02-13T07:20:39;97735.78;;;-0.60;100.00
8717;BME280;4395;48.554;8.820;2023-02-13T07:22:41;97754.00;;;-0.57;100.00
8717;BME280;4395;48.554;8.820;2023-02-13T07:24:44;97742.19;;;-0.34;100.00
8717;BME280;4395;48.554;8.820;2023-02-13T07:26:48;97743.69;;;-0.21;100.00
8717;BME280;4395;48.554;8.820;2023-02-13T07:28:51;97753.44;;;-0.12;100.00
8717;BME280;4395;48.554;8.820;2023-02-13T07:31:10;97747.59;;;-0.06;100.00
8717;BME280;4395;48.554;8.820;2023-02-13T07:33:13;97751.78;;;0.06;100.00
8717;BME280;4395;48.554;8.820;2023-02-13T07:35:16;97652.22;;;-0.51;100.00
8717;BME280;4395;48.554;8.820;2023-02-13T07:37:19;97735.75;;;0.17;100.00
8717;BME280;4395;48.554;8.820;2023-02-13T07:39:22;97755.63;;;0.21;100.00
8717;BME280;4395;48.554;8.820;2023-02-13T07:41:24;97749.22;;;0.24;100.00
8717;BME280;4395;48.554;8.820;2023-02-13T07:43:29;97664.16;;;-0.28;100.00
8717;BME280;4395;48.554;8.820;2023-02-13T07:45:32;97688.03;;;-0.10;100.00
8717;BME280;4395;48.554;8.820;2023-02-13T07:47:36;97751.56;;;0.37;100.00
8717;BME280;4395;48.554;8.820;2023-02-13T07:49:39;97755.03;;;0.37;100.00
8717;BME280;4395;48.554;8.820;2023-02-13T07:51:42;97757.13;;;0.43;100.00
8717;BME280;4395;48.554;8.820;2023-02-13T07:53:44;97760.19;;;0.39;100.00
8717;BME280;4395;48.554;8.820;2023-02-13T07:55:47;97755.59;;;0.41;100.00
8717;BME280;4395;48.554;8.820;2023-02-13T07:57:50;97760.06;;;0.30;100.00
8717;BME280;4395;48.554;8.820;2023-02-13T07:59:54;97753.13;;;0.29;100.00
8717;BME280;4395;48.554;8.820;2023-02-13T08:01:57;97749.78;;;0.27;100.00
8717;BME280;4395;48.554;8.820;2023-02-13T08:04:00;97765.38;;;0.21;100.00
8717;BME280;4395;48.554;8.820;2023-02-13T08:06:03;97756.22;;;0.15;100.00
8717;BME280;4395;48.554;8.820;2023-02-13T08:08:07;97627.22;;;-0.67;100.00
8717;BME280;4395;48.554;8.820;2023-02-13T08:10:11;97760.78;;;0.23;100.00
8717;BME280;4395;48.554;8.820;2023-02-13T08:12:34;97770.25;;;0.25;100.00
8717;BME280;4395;48.554;8.820;2023-02-13T08:14:37;97765.75;;;0.36;100.00
8717;BME280;4395;48.554;8.820;2023-02-13T08:16:41;97715.03;;;0.03;100.00
8717;BME280;4395;48.554;8.820;2023-02-13T08:18:44;97758.41;;;0.29;100.00
8717;BME280;4395;48.554;8.820;2023-02-13T08:20:46;97761.84;;;0.40;100.00
8717;BME280;4395;48.554;8.820;2023-02-13T08:22:50;97713.78;;;0.07;100.00
8717;BME280;4395;48.554;8.820;2023-02-13T08:24:52;97774.22;;;0.49;100.00
8717;BME280;4395;48.554;8.820;2023-02-13T08:26:55;97765.03;;;0.53;100.00
8717;BME280;4395;48.554;8.820;2023-02-13T08:28:58;97770.31;;;0.53;100.00
8717;BME280;4395;48.554;8.820;2023-02-13T08:31:01;97760.28;;;0.56;100.00
8717;BME280;4395;48.554;8.820;2023-02-13T08:33:05;97764.81;;;0.74;100.00
8717;BME280;4395;48.554;8.820;2023-02-13T08:35:08;97743.28;;;0.59;100.00
8717;BME280;4395;48.554;8.820;2023-02-13T08:37:10;97772.31;;;0.78;100.00
8717;BME280;4395;48.554;8.820;2023-02-13T08:39:13;97736.97;;;0.70;100.00
8717;BME280;4395;48.554;8.820;2023-02-13T08:41:16;97756.78;;;0.93;100.00
8717;BME280;4395;48.554;8.820;2023-02-13T08:43:19;97764.66;;;1.03;100.00
8717;BME280;4395;48.554;8.820;2023-02-13T08:45:22;97761.13;;;1.12;100.00
8717;BME280;4395;48.554;8.820;2023-02-13T08:47:25;97766.66;;;1.18;100.00
8717;BME280;4395;48.554;8.820;2023-02-13T08:49:29;97756.47;;;1.23;100.00
8717;BME280;4395;48.554;8.820;2023-02-13T08:51:32;97756.69;;;1.30;100.00
8717;BME280;4395;48.554;8.820;2023-02-13T08:53:36;97767.59;;;1.27;100.00
8717;BME280;4395;48.554;8.820;2023-02-13T08:55:39;97762.34;;;1.17;100.00
8717;BME280;4395;48.554;8.820;2023-02-13T08:57:41;97765.53;;;1.21;100.00
8717;BME280;4395;48.554;8.820;2023-02-13T08:59:44;97762.69;;;1.32;100.00
8717;BME280;4395;48.554;8.820;2023-02-13T09:01:47;97767.38;;;1.38;100.00
8717;BME280;4395;48.554;8.820;2023-02-13T09:03:50;97767.38;;;1.38;100.00
8717;BME280;4395;48.554;8.820;2023-02-13T09:05:57;97736.50;;;1.29;100.00
8717;BME280;4395;48.554;8.820;2023-02-13T09:08:01;97761.72;;;1.51;100.00
8717;BME280;4395;48.554;8.820;2023-02-13T09:10:05;97754.91;;;1.48;100.00
8717;BME280;4395;48.554;8.820;2023-02-13T09:12:08;97751.41;;;1.66;100.00
8717;BME280;4395;48.554;8.820;2023-02-13T09:14:11;97738.53;;;1.53;100.00
8717;BME280;4395;48.554;8.820;2023-02-13T09:16:14;97746.41;;;1.63;100.00
8717;BME280;4395;48.554;8.820;2023-02-13T09:18:17;97746.81;;;1.68;100.00
8717;BME280;4395;48.554;8.820;2023-02-13T09:20:20;97737.56;;;1.72;100.00
8717;BME280;4395;48.554;8.820;2023-02-13T09:22:24;97743.59;;;1.82;100.00
8717;BME280;4395;48.554;8.820;2023-02-13T09:24:27;97739.66;;;1.86;100.00
8717;BME280;4395;48.554;8.820;2023-02-13T09:26:29;97743.75;;;1.98;100.00
8717;BME280;4395;48.554;8.820;2023-02-13T09:28:33;97729.97;;;1.77;100.00
8717;BME280;4395;48.554;8.820;2023-02-13T09:30:36;97750.25;;;2.04;100.00
8717;BME280;4395;48.554;8.820;2023-02-13T09:32:40;97745.25;;;2.01;100.00
8717;BME280;4395;48.554;8.820;2023-02-13T09:34:43;97755.94;;;2.09;100.00
8717;BME280;4395;48.554;8.820;2023-02-13T09:36:50;97752.19;;;2.19;100.00
8717;BME280;4395;48.554;8.820;2023-02-13T09:38:55;97682.47;;;1.83;100.00
8717;BME280;4395;48.554;8.820;2023-02-13T09:41:01;97739.28;;;2.24;100.00
8717;BME280;4395;48.554;8.820;2023-02-13T09:43:09;97727.53;;;2.27;100.00
8717;BME280;4395;48.554;8.820;2023-02-13T09:45:14;97735.06;;;2.40;100.00
8717;BME280;4395;48.554;8.820;2023-02-13T09:47:27;97737.81;;;2.56;100.00
8717;BME280;4395;48.554;8.820;2023-02-13T09:49:32;97742.38;;;2.64;100.00
8717;BME280;4395;48.554;8.820;2023-02-13T09:51:37;97743.25;;;2.72;100.00
8717;BME280;4395;48.554;8.820;2023-02-13T09:53:40;97744.28;;;2.79;100.00
8717;BME280;4395;48.554;8.820;2023-02-13T09:55:48;97742.81;;;2.85;100.00
8717;BME280;4395;48.554;8.820;2023-02-13T09:57:56;97748.00;;;2.95;100.00
8717;BME280;4395;48.554;8.820;2023-02-13T10:00:06;97753.00;;;2.98;100.00
8717;BME280;4395;48.554;8.820;2023-02-13T10:02:24;97658.16;;;2.48;100.00
8717;BME280;4395;48.554;8.820;2023-02-13T10:04:37;97756.19;;;3.09;100.00
8717;BME280;4395;48.554;8.820;2023-02-13T10:06:45;97752.22;;;3.13;100.00
8717;BME280;4395;48.554;8.820;2023-02-13T10:09:05;97758.25;;;3.23;100.00
8717;BME280;4395;48.554;8.820;2023-02-13T10:13:52;97759.59;;;3.28;100.00
8717;BME280;4395;48.554;8.820;2023-02-13T10:16:06;97660.72;;;2.32;100.00
8717;BME280;4395;48.554;8.820;2023-02-13T10:18:14;97696.78;;;2.68;100.00
8717;BME280;4395;48.554;8.820;2023-02-13T10:20:26;97755.13;;;3.36;100.00
8717;BME280;4395;48.554;8.820;2023-02-13T10:22:33;97751.38;;;2.45;100.00
8717;BME280;4395;48.554;8.820;2023-02-13T10:24:39;97689.56;;;2.26;100.00
8717;BME280;4395;48.554;8.820;2023-02-13T10:26:45;97747.09;;;3.20;100.00
8717;BME280;4395;48.554;8.820;2023-02-13T10:28:52;97750.66;;;3.45;100.00
8717;BME280;4395;48.554;8.820;2023-02-13T10:31:14;97748.69;;;3.55;100.00
8717;BME280;4395;48.554;8.820;2023-02-13T10:33:22;97753.34;;;3.53;100.00
8717;BME280;4395;48.554;8.820;2023-02-13T10:35:29;97756.66;;;3.55;100.00
8717;BME280;4395;48.554;8.820;2023-02-13T10:37:34;97732.03;;;3.45;100.00
8717;BME280;4395;48.554;8.820;2023-02-13T10:39:40;97761.31;;;3.61;100.00
8717;BME280;4395;48.554;8.820;2023-02-13T10:41:50;97750.22;;;3.74;100.00
8717;BME280;4395;48.554;8.820;2023-02-13T10:44:05;97751.72;;;3.84;100.00
8717;BME280;4395;48.554;8.820;2023-02-13T10:46:18;97743.91;;;3.83;100.00
8717;BME280;4395;48.554;8.820;2023-02-13T10:48:36;97752.22;;;3.88;100.00
8717;BME280;4395;48.554;8.820;2023-02-13T10:50:45;97754.88;;;3.96;100.00
8717;BME280;4395;48.554;8.820;2023-02-13T10:52:58;97762.69;;;3.98;100.00
8717;BME280;4395;48.554;8.820;2023-02-13T10:55:22;97750.06;;;4.00;100.00
8717;BME280;4395;48.554;8.820;2023-02-13T10:57:47;97686.72;;;3.63;100.00
8717;BME280;4395;48.554;8.820;2023-02-13T11:00:03;97743.25;;;4.05;100.00
8717;BME280;4395;48.554;8.820;2023-02-13T11:02:19;97718.13;;;4.00;100.00
8717;BME280;4395;48.554;8.820;2023-02-13T11:04:23;97743.56;;;4.18;100.00
8717;BME280;4395;48.554;8.820;2023-02-13T11:06:26;97730.56;;;4.32;100.00
8717;BME280;4395;48.554;8.820;2023-02-13T11:08:31;97737.53;;;4.41;100.00
8717;BME280;4395;48.554;8.820;2023-02-13T11:10:34;97734.69;;;4.50;100.00
8717;BME280;4395;48.554;8.820;2023-02-13T11:12:38;97727.19;;;4.54;100.00
8717;BME280;4395;48.554;8.820;2023-02-13T11:14:52;97730.88;;;4.45;100.00
8717;BME280;4395;48.554;8.820;2023-02-13T11:16:57;97724.06;;;4.42;100.00
8717;BME280;4395;48.554;8.820;2023-02-13T11:19:01;97732.53;;;4.46;100.00
8717;BME280;4395;48.554;8.820;2023-02-13T11:21:07;97736.53;;;4.50;100.00
8717;BME280;4395;48.554;8.820;2023-02-13T11:23:27;97736.19;;;4.61;100.00
8717;BME280;4395;48.554;8.820;2023-02-13T11:25:35;97731.50;;;4.63;100.00
8717;BME280;4395;48.554;8.820;2023-02-13T11:27:39;97739.50;;;4.63;100.00
8717;BME280;4395;48.554;8.820;2023-02-13T11:29:51;97733.66;;;4.68;100.00
8717;BME280;4395;48.554;8.820;2023-02-13T11:32:03;97735.63;;;4.74;100.00
8717;BME280;4395;48.554;8.820;2023-02-13T11:34:21;97728.97;;;4.78;100.00
8717;BME280;4395;48.554;8.820;2023-02-13T11:36:27;97718.78;;;4.81;100.00